createdAt,value
2023-01-11T00:00:33.264Z,28
2023-01-11T00:15:32.748Z,28
2023-01-11T00:30:32.477Z,27
2023-01-11T00:45:32.648Z,28
2023-01-11T01:00:31.990Z,28
2023-01-11T01:15:32.103Z,28
2023-01-11T01:30:32.394Z,28
2023-01-11T01:45:32.870Z,28
2023-01-11T02:00:32.357Z,28
2023-01-11T02:15:32.182Z,28
2023-01-11T02:30:32.270Z,29
2023-01-11T02:45:32.202Z,29
2023-01-11T03:00:32.764Z,29
2023-01-11T03:15:32.768Z,29
2023-01-11T03:30:31.962Z,29
2023-01-11T03:45:32.356Z,29
2023-01-11T04:00:32.210Z,30
2023-01-11T04:15:32.644Z,30
2023-01-11T04:30:31.937Z,30
2023-01-11T04:45:32.736Z,30
2023-01-11T05:00:33.375Z,30
2023-01-11T05:15:32.733Z,30
2023-01-11T05:30:32.627Z,31
2023-01-11T05:45:32.418Z,31
2023-01-11T06:00:33.445Z,31
2023-01-11T06:15:32.717Z,31
2023-01-11T06:30:32.390Z,31
2023-01-11T06:45:32.516Z,32
2023-01-11T07:00:38.055Z,32
2023-01-11T07:15:31.998Z,32
2023-01-11T07:30:58.012Z,32
2023-01-11T07:45:46.571Z,32
2023-01-11T08:00:34.863Z,32
2023-01-11T08:15:32.440Z,32
2023-01-11T08:30:31.991Z,32
2023-01-11T08:45:32.077Z,32
2023-01-11T09:00:32.737Z,32
2023-01-11T09:15:32.591Z,32
2023-01-11T09:30:32.116Z,32
2023-01-11T09:45:32.446Z,32
2023-01-11T10:00:33.656Z,32
2023-01-11T10:30:32.401Z,32
2023-01-11T10:45:32.346Z,32
2023-01-11T11:00:33.752Z,33
2023-01-11T11:15:32.380Z,33
2023-01-11T11:30:33.066Z,33
2023-01-11T11:45:32.026Z,33
2023-01-11T12:00:34.205Z,33
2023-01-11T12:15:32.493Z,33
2023-01-11T12:30:32.966Z,33
2023-01-11T12:45:32.039Z,33
2023-01-11T13:00:33.595Z,33
2023-01-11T13:15:34.716Z,34
2023-01-11T13:30:32.774Z,34
2023-01-11T13:45:32.601Z,34
2023-01-11T14:00:35.533Z,34
2023-01-11T14:15:32.080Z,34
2023-01-11T14:30:33.029Z,34
2023-01-11T14:45:32.250Z,35
2023-01-11T15:00:33.255Z,35
2023-01-11T15:15:32.765Z,36
2023-01-11T15:30:32.628Z,36
2023-01-11T15:45:32.538Z,36
2023-01-11T16:00:34.446Z,36
2023-01-11T16:15:32.527Z,37
2023-01-11T16:30:32.703Z,37
2023-01-11T16:45:32.403Z,37
2023-01-11T17:00:37.330Z,37
2023-01-11T17:15:33.769Z,37
2023-01-11T17:30:33.818Z,37
2023-01-11T17:45:32.762Z,38
2023-01-11T18:00:33.700Z,38
2023-01-11T18:15:32.151Z,38
2023-01-11T18:30:33.009Z,38
2023-01-11T18:45:31.886Z,38
2023-01-11T19:00:33.166Z,38
2023-01-11T19:15:32.148Z,38
2023-01-11T19:30:32.971Z,38
2023-01-11T19:45:32.276Z,38
2023-01-11T20:00:32.887Z,38
2023-01-11T20:15:32.852Z,38
2023-01-11T20:30:32.842Z,38
2023-01-11T20:45:32.971Z,38
2023-01-11T21:00:33.242Z,38
2023-01-11T21:15:32.674Z,38
2023-01-11T21:30:31.937Z,38
2023-01-11T21:45:31.796Z,38
2023-01-11T22:00:32.023Z,38
2023-01-11T22:15:32.274Z,38
2023-01-11T22:30:32.052Z,38
2023-01-11T22:45:32.349Z,38
2023-01-11T23:00:32.650Z,38
2023-01-11T23:15:32.563Z,38
2023-01-11T23:30:33.078Z,38
2023-01-11T23:45:32.171Z,38
